Time;durP1;ratioP1;P1;durP2;ratioP2;P2;SDS_P1;SDS_P2;PMS_P1;PMS_P2;Temp;Humidity;BMP_temperature;BMP_pressure;BME280_temperature;BME280_humidity;BME280_pressure;Samples;Min_cycle;Max_cycle;Signal;HPM_P1;HPM_P2
2021/01/21 00:03:57;;;;;;;13.05;9.65;;;;;;;7.20;68.38;99038.86;2923371;81;21163;-69
2021/01/21 00:08:02;;;;;;;10.55;8.45;;;;;;;7.21;68.51;99032.61;2849982;82;21176;-68
2021/01/21 00:12:07;;;;;;;14.68;8.78;;;;;;;7.29;68.64;99027.49;2810906;83;21653;-72
2021/01/21 00:16:10;;;;;;;18.67;10.03;;;;;;;7.34;68.74;99022.27;2853327;83;22315;-69
2021/01/21 00:20:14;;;;;;;14.55;10.15;;;;;;;7.39;68.72;99024.02;2842008;83;21173;-68
2021/01/21 00:24:17;;;;;;;15.75;9.25;;;;;;;7.43;68.76;99020.97;2802183;85;21141;-70
2021/01/21 00:28:20;;;;;;;21.50;9.93;;;;;;;7.50;68.66;99014.65;2806402;84;21172;-68
2021/01/21 00:32:24;;;;;;;14.35;10.38;;;;;;;7.62;68.43;99010.53;2806066;84;21189;-70
2021/01/21 00:36:26;;;;;;;16.55;9.55;;;;;;;7.65;68.30;99012.90;2854581;83;21171;-69
2021/01/21 00:40:29;;;;;;;14.38;10.48;;;;;;;7.67;68.39;99013.13;2857596;82;21162;-68
2021/01/21 00:44:32;;;;;;;17.87;12.98;;;;;;;7.73;68.23;99017.03;2858723;83;21182;-69
2021/01/21 00:48:37;;;;;;;11.78;10.43;;;;;;;7.76;68.01;99007.48;2858296;81;21204;-68
2021/01/21 00:52:41;;;;;;;19.30;10.78;;;;;;;7.77;67.86;99003.86;2920574;80;21129;-70
2021/01/21 00:56:44;;;;;;;14.03;11.68;;;;;;;7.77;67.95;98995.92;2924250;80;21145;-67
2021/01/21 01:00:47;;;;;;;14.58;12.30;;;;;;;7.83;67.89;98987.41;2908864;81;21157;-70
2021/01/21 01:04:50;;;;;;;16.37;12.30;;;;;;;7.84;67.87;98981.64;2904019;82;21156;-69
2021/01/21 01:08:53;;;;;;;12.10;9.68;;;;;;;7.85;67.83;98979.34;2904504;81;21611;-70
2021/01/21 01:12:56;;;;;;;14.98;11.70;;;;;;;7.84;67.85;98968.40;2904289;81;21595;-72
2021/01/21 01:16:59;;;;;;;14.83;11.70;;;;;;;7.86;67.65;98955.38;2904372;82;21137;-70
2021/01/21 01:21:03;;;;;;;13.83;10.48;;;;;;;7.92;67.32;98958.43;2904314;81;22264;-69
2021/01/21 01:25:07;;;;;;;11.73;9.48;;;;;;;7.94;67.18;98955.15;2903979;82;21555;-69
2021/01/21 01:29:10;;;;;;;17.92;10.15;;;;;;;7.99;67.04;98944.48;2904442;81;21129;-69
2021/01/21 01:33:13;;;;;;;16.12;10.93;;;;;;;7.99;66.97;98947.13;2904582;82;21658;-69
2021/01/21 01:37:16;;;;;;;12.53;9.55;;;;;;;7.95;66.85;98944.40;2904299;81;21153;-69
2021/01/21 01:41:19;;;;;;;14.00;10.80;;;;;;;7.97;67.00;98939.83;2904404;82;21193;-70
2021/01/21 01:45:21;;;;;;;11.95;10.65;;;;;;;7.99;66.94;98946.28;2904260;82;21187;-70
2021/01/21 01:49:24;;;;;;;14.87;9.50;;;;;;;8.01;66.93;98946.97;2904135;82;21133;-69
2021/01/21 01:53:30;;;;;;;16.87;10.65;;;;;;;8.02;66.57;98936.73;2904013;82;21588;-69
2021/01/21 01:57:33;;;;;;;11.30;8.33;;;;;;;8.05;66.44;98932.47;2904570;81;21128;-67
2021/01/21 02:01:36;;;;;;;13.90;9.53;;;;;;;8.06;66.30;98945.23;2904406;82;21181;-67
2021/01/21 02:05:40;;;;;;;11.28;8.93;;;;;;;8.10;66.26;98935.54;2904316;81;21132;-68
2021/01/21 02:09:43;;;;;;;13.83;9.85;;;;;;;8.07;66.07;98929.69;2904369;82;21141;-68
2021/01/21 02:14:14;;;;;;;11.55;8.73;;;;;;;8.08;66.05;98922.94;2903427;82;21720;-68
2021/01/21 02:19:13;;;;;;;13.80;8.98;;;;;;;8.07;66.00;98921.27;2904283;82;21165;-71
2021/01/21 02:23:56;;;;;;;12.00;8.95;;;;;;;8.03;65.92;98920.36;2904094;81;21135;-70
2021/01/21 02:28:16;;;;;;;16.60;9.98;;;;;;;8.11;65.83;98925.77;2904182;82;21260;-68
2021/01/21 02:32:50;;;;;;;11.60;8.43;;;;;;;8.10;65.64;98920.13;2902786;82;21482;-70
2021/01/21 02:36:58;;;;;;;9.40;8.20;;;;;;;8.07;65.36;98913.80;2910052;81;21128;-70
2021/01/21 02:41:02;;;;;;;7.97;6.80;;;;;;;8.05;65.19;98922.38;2911334;81;21587;-68
2021/01/21 02:45:07;;;;;;;9.55;7.42;;;;;;;8.07;65.19;98906.70;2911255;81;21160;-70
2021/01/21 02:49:10;;;;;;;12.58;7.78;;;;;;;8.07;65.39;98910.67;2913032;80;21129;-70
2021/01/21 02:53:13;;;;;;;11.90;8.10;;;;;;;8.07;65.44;98910.67;2913376;80;21146;-71
2021/01/21 02:57:27;;;;;;;10.95;7.87;;;;;;;8.02;65.65;98912.89;2867745;83;21189;-69
2021/01/21 03:01:34;;;;;;;10.48;8.43;;;;;;;7.99;65.97;98914.51;2870110;81;21182;-69
2021/01/21 03:05:37;;;;;;;14.87;8.95;;;;;;;7.95;66.11;98907.83;2888231;81;21148;-68
2021/01/21 03:09:45;;;;;;;8.18;7.10;;;;;;;7.92;66.27;98910.77;2911277;81;21129;-69
2021/01/21 03:13:47;;;;;;;12.58;9.30;;;;;;;7.92;66.48;98902.83;2910629;81;21183;-68
2021/01/21 03:17:51;;;;;;;11.20;8.75;;;;;;;7.89;66.76;98912.38;2918870;81;21152;-71
2021/01/21 03:21:54;;;;;;;10.95;7.90;;;;;;;7.93;66.98;98900.52;2923201;81;21128;-72
2021/01/21 03:25:57;;;;;;;13.43;9.98;;;;;;;7.92;67.19;98910.77;2923283;81;21152;-68
2021/01/21 03:29:59;;;;;;;8.23;6.85;;;;;;;7.89;67.37;98905.77;2923646;81;21164;-68
2021/01/21 03:34:02;;;;;;;14.83;8.73;;;;;;;7.83;67.53;98907.98;2922666;81;21148;-69
2021/01/21 03:38:05;;;;;;;11.85;8.90;;;;;;;7.88;67.59;98912.86;2914528;81;21140;-69
2021/01/21 03:42:08;;;;;;;9.70;8.45;;;;;;;7.95;67.39;98919.24;2898467;82;21153;-67
2021/01/21 03:46:11;;;;;;;9.50;7.33;;;;;;;7.93;67.42;98916.41;2898923;82;21161;-69
2021/01/21 03:50:14;;;;;;;13.45;8.73;;;;;;;7.92;67.52;98909.45;2898553;81;21152;-69
2021/01/21 03:54:17;;;;;;;11.22;6.47;;;;;;;7.94;67.65;98914.92;2898644;82;21117;-66
2021/01/21 03:58:20;;;;;;;10.15;7.53;;;;;;;7.90;67.95;98919.34;2898936;82;21502;-68
2021/01/21 04:02:23;;;;;;;14.38;10.58;;;;;;;7.89;67.89;98918.50;2913743;80;21211;-66
2021/01/21 04:06:26;;;;;;;15.45;10.05;;;;;;;7.90;68.02;98920.67;2935815;80;21133;-68
2021/01/21 04:10:28;;;;;;;12.15;8.58;;;;;;;7.84;68.17;98920.23;2928664;80;21161;-65
2021/01/21 04:14:31;;;;;;;11.88;8.58;;;;;;;7.83;68.25;98917.75;2869269;82;21136;-68
2021/01/21 04:18:35;;;;;;;13.45;9.33;;;;;;;7.79;68.39;98910.57;2869465;83;21164;-68
2021/01/21 04:22:48;;;;;;;13.20;8.80;;;;;;;7.80;68.44;98912.24;3117448;76;23461;-66
2021/01/21 04:26:51;;;;;;;11.85;9.48;;;;;;;7.76;68.44;98906.89;3065220;77;21089;-68
2021/01/21 04:30:54;;;;;;;13.43;10.25;;;;;;;7.72;68.57;98902.86;3065561;77;21132;-68
2021/01/21 04:34:57;;;;;;;12.98;9.60;;;;;;;7.75;68.76;98893.78;3051598;77;21128;-66
2021/01/21 04:39:01;;;;;;;11.08;7.40;;;;;;;7.71;68.98;98898.55;3012626;76;21114;-69
2021/01/21 04:43:03;;;;;;;15.72;12.15;;;;;;;7.67;69.30;98894.02;2953659;80;21149;-68
2021/01/21 04:47:09;;;;;;;14.03;10.30;;;;;;;7.64;69.71;98893.45;2976549;80;21109;-67
2021/01/21 04:51:15;;;;;;;14.30;9.95;;;;;;;7.55;70.11;98899.09;2965619;79;21130;-66
2021/01/21 04:55:22;;;;;;;17.48;13.53;;;;;;;7.47;70.66;98893.21;2918685;80;21116;-69
2021/01/21 04:59:27;;;;;;;13.10;9.70;;;;;;;7.44;70.88;98892.14;2911497;81;21145;-67
2021/01/21 05:03:30;;;;;;;16.80;11.20;;;;;;;7.42;71.00;98902.03;2858001;82;21583;-70
2021/01/21 05:07:34;;;;;;;14.20;11.45;;;;;;;7.42;71.06;98903.36;2849563;83;21118;-67
2021/01/21 05:11:39;;;;;;;15.05;12.35;;;;;;;7.41;71.22;98899.05;2861968;81;21180;-68
2021/01/21 05:15:42;;;;;;;15.75;9.30;;;;;;;7.41;71.24;98895.08;2897080;81;21149;-69
2021/01/21 05:19:47;;;;;;;15.00;11.85;;;;;;;7.40;71.16;98898.70;2908309;81;21106;-70
2021/01/21 05:23:55;;;;;;;16.52;12.43;;;;;;;7.42;71.11;98910.82;2931853;81;21111;-73
2021/01/21 05:28:03;;;;;;;16.82;12.43;;;;;;;7.46;71.14;98914.00;2917825;80;21210;-69
2021/01/21 05:32:08;;;;;;;14.78;9.38;;;;;;;7.57;70.94;98931.58;2880001;80;21627;-68
2021/01/21 05:36:12;;;;;;;14.53;11.50;;;;;;;7.69;70.59;98956.91;2876516;80;21683;-68
2021/01/21 05:40:16;;;;;;;16.02;11.22;;;;;;;7.83;70.25;98954.31;2886114;82;21200;-71
2021/01/21 05:44:19;;;;;;;16.20;11.15;;;;;;;7.97;69.93;98943.80;2918183;81;21137;-73
2021/01/21 05:48:22;;;;;;;13.75;9.13;;;;;;;7.83;69.80;98939.75;2942934;80;21117;-70
2021/01/21 05:52:26;;;;;;;13.43;9.83;;;;;;;7.72;70.42;98943.89;2900123;82;21113;-68
2021/01/21 05:56:29;;;;;;;12.28;9.80;;;;;;;7.62;71.17;98942.57;2902924;81;21138;-69
2021/01/21 06:00:35;;;;;;;14.25;9.95;;;;;;;7.49;71.78;98937.56;2926606;81;21189;-71
2021/01/21 06:04:37;;;;;;;12.35;9.48;;;;;;;7.42;72.07;98942.57;2900212;82;21145;-70
2021/01/21 06:08:42;;;;;;;15.15;9.60;;;;;;;7.40;72.25;98951.61;2873023;82;21098;-71
2021/01/21 06:12:50;;;;;;;14.43;9.75;;;;;;;7.38;72.46;98950.44;2898663;82;21157;-71
2021/01/21 06:16:54;;;;;;;11.20;8.30;;;;;;;7.36;72.50;98937.81;2900363;82;21141;-67
2021/01/21 06:20:58;;;;;;;16.45;10.90;;;;;;;7.34;72.68;98934.47;2900001;82;21185;-68
2021/01/21 06:25:06;;;;;;;10.85;9.10;;;;;;;7.33;72.69;98919.58;2900159;82;21149;-70
2021/01/21 06:29:14;;;;;;;12.05;8.10;;;;;;;7.33;72.80;98932.80;2899610;82;21160;-69
2021/01/21 06:33:23;;;;;;;11.15;9.93;;;;;;;7.36;72.82;98934.34;2899415;82;21153;-71
2021/01/21 06:37:29;;;;;;;12.70;9.88;;;;;;;7.36;72.80;98929.06;2899975;82;21304;-74
2021/01/21 06:41:35;;;;;;;12.98;9.08;;;;;;;7.39;72.73;98938.88;2872770;82;21177;-72
2021/01/21 06:45:40;;;;;;;18.48;10.32;;;;;;;7.43;72.51;98931.48;2900075;82;21158;-72
2021/01/21 06:49:43;;;;;;;15.25;10.20;;;;;;;7.42;72.49;98931.14;2900172;82;21116;-71
2021/01/21 06:53:50;;;;;;;12.50;10.28;;;;;;;7.44;72.51;98923.89;2899762;82;21145;-72
2021/01/21 06:57:53;;;;;;;13.22;9.43;;;;;;;7.45;72.42;98938.80;2900356;82;21112;-71
2021/01/21 07:01:56;;;;;;;11.68;10.35;;;;;;;7.46;72.36;98950.23;2900106;82;21097;-69
2021/01/21 07:06:02;;;;;;;21.12;14.53;;;;;;;7.48;72.37;98954.41;2900112;82;21140;-71
2021/01/21 07:10:09;;;;;;;17.35;9.98;;;;;;;7.52;72.11;98953.16;2900200;82;21125;-71
2021/01/21 07:14:14;;;;;;;13.32;11.35;;;;;;;7.51;71.90;98962.07;2872911;82;21128;-71
2021/01/21 07:18:24;;;;;;;11.73;9.35;;;;;;;7.59;71.79;98966.67;2898549;82;21153;-71
2021/01/21 07:22:31;;;;;;;15.08;10.63;;;;;;;7.64;71.72;98961.79;2898333;82;21113;-71
2021/01/21 07:26:41;;;;;;;12.88;10.00;;;;;;;7.68;71.51;98958.39;2894143;82;21263;-72
2021/01/21 07:30:47;;;;;;;10.30;8.10;;;;;;;7.69;71.53;98957.41;2898037;82;21148;-69
2021/01/21 07:34:49;;;;;;;11.93;9.63;;;;;;;7.71;71.60;98962.07;2898114;82;21123;-69
2021/01/21 07:38:52;;;;;;;11.88;9.30;;;;;;;7.68;71.58;98953.91;2898157;82;21140;-72
2021/01/21 07:42:57;;;;;;;11.38;8.25;;;;;;;7.63;71.73;98946.89;2893983;80;21118;-71
2021/01/21 07:47:24;;;;;;;14.78;10.10;;;;;;;7.54;72.02;98945.91;2897782;82;21164;-74
2021/01/21 07:51:28;;;;;;;15.10;8.83;;;;;;;7.55;72.39;98963.45;2904269;80;21145;-69
2021/01/21 07:55:39;;;;;;;15.35;8.68;;;;;;;7.57;72.22;98984.50;2897215;82;21181;-69
2021/01/21 08:00:04;;;;;;;16.85;10.13;;;;;;;7.65;72.14;98991.72;2861472;80;21164;-71
2021/01/21 08:04:07;;;;;;;11.85;8.65;;;;;;;7.68;71.75;98987.50;2904626;80;21221;-71
2021/01/21 08:08:10;;;;;;;9.88;8.73;;;;;;;7.74;71.60;98985.61;2948873;80;21137;-71
2021/01/21 08:12:13;;;;;;;13.68;9.20;;;;;;;7.80;71.19;98978.92;2948961;80;21162;-72
2021/01/21 08:16:18;;;;;;;10.90;8.95;;;;;;;7.84;71.01;98978.48;2948354;80;21150;-71
2021/01/21 08:20:27;;;;;;;13.40;9.15;;;;;;;7.82;70.89;98957.94;2888612;80;21628;-70
2021/01/21 08:24:30;;;;;;;55.30;35.52;;;;;;;7.86;70.90;98948.76;2852426;83;21200;-71
2021/01/21 08:28:33;;;;;;;55.25;33.80;;;;;;;7.90;70.82;98939.20;2880546;82;21582;-72
2021/01/21 08:32:36;;;;;;;33.13;21.82;;;;;;;7.92;70.99;98938.57;2897828;82;22193;-70
2021/01/21 08:36:41;;;;;;;13.20;8.98;;;;;;;7.94;70.96;98939.27;2898025;81;21141;-71
2021/01/21 08:40:45;;;;;;;13.83;10.95;;;;;;;7.89;71.11;98936.22;2897969;82;21136;-69
2021/01/21 08:44:49;;;;;;;13.60;9.08;;;;;;;7.92;71.15;98926.66;2897840;82;21550;-72
2021/01/21 08:48:52;;;;;;;15.93;10.10;;;;;;;7.94;71.27;98924.70;2897923;81;21128;-69
2021/01/21 08:53:17;;;;;;;8.73;7.58;;;;;;;7.99;70.91;98913.19;2897641;81;21156;-71
2021/01/21 08:57:22;;;;;;;12.23;8.35;;;;;;;8.01;70.85;98904.60;2897428;82;21172;-73
2021/01/21 09:01:25;;;;;;;9.25;7.58;;;;;;;8.07;70.51;98900.55;2897757;82;21132;-69
2021/01/21 09:05:29;;;;;;;10.25;8.10;;;;;;;8.15;70.04;98890.91;2897590;82;21132;-70
2021/01/21 09:09:39;;;;;;;10.72;8.00;;;;;;;8.19;69.89;98898.56;2898335;82;21116;-73
2021/01/21 09:13:48;;;;;;;13.85;8.43;;;;;;;8.19;69.81;98909.16;2898193;82;21144;-72
2021/01/21 09:18:05;;;;;;;12.33;9.75;;;;;;;8.25;70.01;98907.25;2897836;81;21140;-70
2021/01/21 09:22:15;;;;;;;90.53;43.68;;;;;;;8.22;69.92;98902.23;2890084;81;21125;-74
2021/01/21 09:26:20;;;;;;;92.08;51.25;;;;;;;8.19;70.38;98910.48;2915521;81;21156;-71
2021/01/21 09:30:24;;;;;;;72.67;40.85;;;;;;;8.21;70.43;98913.81;2914484;80;21105;-68
2021/01/21 09:34:27;;;;;;;15.95;11.57;;;;;;;8.24;70.61;98921.00;2923569;80;21116;-74
2021/01/21 09:38:30;;;;;;;15.30;9.15;;;;;;;8.30;70.22;98928.86;2932315;79;21159;-72
2021/01/21 09:42:33;;;;;;;16.97;11.08;;;;;;;8.37;70.31;98918.02;2926876;80;21146;-69
2021/01/21 09:46:36;;;;;;;17.65;9.95;;;;;;;8.41;69.86;98923.88;2927682;81;21599;-71
2021/01/21 09:50:39;;;;;;;13.60;10.20;;;;;;;8.52;69.70;98922.88;2960575;80;21511;-70
2021/01/21 09:54:42;;;;;;;18.98;9.40;;;;;;;8.63;69.62;98914.72;2976694;80;21156;-72
2021/01/21 09:58:45;;;;;;;12.37;8.88;;;;;;;8.87;69.55;98922.65;2917030;80;21145;-69
2021/01/21 10:02:47;;;;;;;12.25;8.60;;;;;;;9.08;69.41;98919.70;2967217;80;21149;-73
2021/01/21 10:06:52;;;;;;;15.03;11.25;;;;;;;9.43;68.78;98905.27;2915285;81;21145;-69
2021/01/21 10:10:55;;;;;;;15.70;9.95;;;;;;;9.77;68.39;98913.03;2967153;80;21109;-71
2021/01/21 10:15:01;;;;;;;13.83;9.95;;;;;;;10.04;67.84;98906.75;2915347;81;21602;-71
2021/01/21 10:19:05;;;;;;;10.40;8.93;;;;;;;10.22;66.73;98905.83;2967172;80;21104;-72
2021/01/21 10:23:07;;;;;;;10.60;7.62;;;;;;;10.22;66.11;98904.50;2963939;80;21122;-73
2021/01/21 10:27:11;;;;;;;11.48;7.42;;;;;;;10.14;66.08;98902.66;2962013;80;21113;-68
2021/01/21 10:31:14;;;;;;;13.70;8.83;;;;;;;10.11;66.04;98902.47;2962374;80;21134;-70
2021/01/21 10:35:20;;;;;;;14.95;9.70;;;;;;;10.11;66.40;98902.47;2961833;80;21205;-72
2021/01/21 10:39:28;;;;;;;12.97;7.63;;;;;;;10.15;67.38;98896.35;2910622;81;21142;-70
2021/01/21 10:43:31;;;;;;;11.15;9.53;;;;;;;10.08;66.49;98882.02;2961489;80;21500;-72
2021/01/21 10:47:34;;;;;;;12.05;8.25;;;;;;;9.96;67.08;98882.30;2910011;81;21182;-72
2021/01/21 10:51:37;;;;;;;11.68;7.12;;;;;;;9.84;67.12;98867.11;2962381;80;21121;-71
2021/01/21 10:55:42;;;;;;;15.38;9.20;;;;;;;9.82;66.85;98869.58;2910311;81;21173;-70
2021/01/21 10:59:45;;;;;;;12.95;7.85;;;;;;;9.74;66.91;98867.69;2962126;80;21125;-71
2021/01/21 11:03:48;;;;;;;13.72;8.60;;;;;;;9.66;67.35;98859.69;2910588;81;21167;-68
2021/01/21 11:07:50;;;;;;;10.38;7.25;;;;;;;9.61;66.99;98860.62;2959422;80;21165;-71
2021/01/21 11:11:53;;;;;;;10.13;7.50;;;;;;;9.53;66.95;98842.33;2910430;81;21184;-68
2021/01/21 11:15:56;;;;;;;10.25;7.72;;;;;;;9.50;66.67;98839.98;2961639;80;21140;-74
2021/01/21 11:19:59;;;;;;;10.10;7.60;;;;;;;9.47;66.60;98824.38;2910428;80;21157;-72
2021/01/21 11:24:02;;;;;;;11.35;9.30;;;;;;;9.63;66.43;98837.40;2962282;80;21160;-74
2021/01/21 11:28:05;;;;;;;15.95;11.90;;;;;;;9.72;67.07;98837.81;2910799;81;21165;-72
2021/01/21 11:32:09;;;;;;;12.78;8.68;;;;;;;9.79;66.99;98819.44;2936472;81;21078;-72
2021/01/21 11:36:12;;;;;;;11.00;9.73;;;;;;;9.82;65.42;98829.73;2962262;80;21117;-72
2021/01/21 11:40:15;;;;;;;9.78;7.80;;;;;;;9.82;65.55;98825.24;2961930;80;21400;-71
2021/01/21 11:44:18;;;;;;;15.83;10.72;;;;;;;9.76;65.53;98819.75;2910500;81;21129;-70
2021/01/21 11:48:22;;;;;;;13.60;9.88;;;;;;;9.70;65.76;98814.05;2936633;80;21158;-71
2021/01/21 11:52:26;;;;;;;9.58;8.08;;;;;;;9.59;65.92;98807.70;2962254;79;21129;-68
2021/01/21 11:56:29;;;;;;;14.03;9.48;;;;;;;9.61;66.27;98795.58;2961688;80;21146;-71
2021/01/21 12:00:32;;;;;;;21.55;13.13;;;;;;;9.61;66.43;98796.42;2910492;81;21146;-71
2021/01/21 12:04:35;;;;;;;14.70;9.80;;;;;;;9.59;66.56;98798.41;2961661;80;21105;-73
2021/01/21 12:08:39;;;;;;;15.60;11.68;;;;;;;9.53;66.44;98797.20;2910304;81;21583;-74
2021/01/21 12:12:42;;;;;;;15.15;12.50;;;;;;;9.52;66.56;98794.20;2936552;81;21663;-70
2021/01/21 12:16:45;;;;;;;15.30;12.58;;;;;;;9.52;66.65;98796.02;2962036;80;21150;-72
2021/01/21 12:20:48;;;;;;;22.70;15.60;;;;;;;9.52;66.77;98796.02;2957584;80;21121;-73
2021/01/21 12:24:51;;;;;;;15.88;13.53;;;;;;;9.50;66.90;98796.19;2961720;80;21168;-73
2021/01/21 12:28:55;;;;;;;19.65;12.88;;;;;;;9.54;67.16;98794.88;2958144;80;21109;-69
2021/01/21 12:32:57;;;;;;;21.87;12.58;;;;;;;9.54;67.05;98793.55;2961827;80;21157;-71
2021/01/21 12:37:01;;;;;;;11.25;10.03;;;;;;;9.56;66.81;98800.05;2961912;80;21180;-71
2021/01/21 12:41:03;;;;;;;12.63;9.08;;;;;;;9.52;66.84;98798.67;2924817;80;21137;-72
2021/01/21 12:45:09;;;;;;;15.83;10.25;;;;;;;9.46;66.98;98796.17;2867978;81;21181;-71
2021/01/21 12:49:13;;;;;;;12.35;9.63;;;;;;;9.43;66.94;98811.05;2882264;80;21136;-70
2021/01/21 12:53:17;;;;;;;17.48;11.73;;;;;;;9.37;66.89;98815.66;2910650;80;21138;-71
2021/01/21 12:57:19;;;;;;;15.75;10.60;;;;;;;9.31;67.28;98814.95;2911270;81;21105;-70
2021/01/21 13:01:23;;;;;;;18.15;12.95;;;;;;;9.26;67.17;98807.45;2910845;81;21152;-72
2021/01/21 13:05:26;;;;;;;16.70;11.45;;;;;;;9.28;66.98;98806.32;2911213;81;21114;-69
2021/01/21 13:09:29;;;;;;;26.90;14.78;;;;;;;9.26;66.66;98801.66;2910433;81;21129;-69
2021/01/21 13:13:32;;;;;;;19.25;12.37;;;;;;;9.26;66.97;98800.34;2910871;81;21125;-70
2021/01/21 13:17:35;;;;;;;13.48;10.40;;;;;;;9.25;66.86;98793.37;2910719;80;21132;-72
2021/01/21 13:21:41;;;;;;;18.35;12.05;;;;;;;9.23;66.78;98795.31;2910147;80;21117;-71
2021/01/21 13:25:45;;;;;;;26.90;14.75;;;;;;;9.22;67.08;98792.83;2910361;81;21153;-72
2021/01/21 13:29:48;;;;;;;16.25;11.05;;;;;;;9.24;66.87;98795.68;2910468;81;21898;-72
2021/01/21 13:33:51;;;;;;;12.47;9.83;;;;;;;9.25;66.65;98804.45;2910645;81;21153;-71
2021/01/21 13:37:54;;;;;;;20.35;12.45;;;;;;;9.27;66.50;98813.09;2910382;81;21117;-69
2021/01/21 13:41:57;;;;;;;26.42;16.75;;;;;;;9.24;66.22;98816.91;2910708;80;21118;-72
2021/01/21 13:46:02;;;;;;;32.05;19.67;;;;;;;9.23;66.15;98827.66;2910257;80;21181;-71
2021/01/21 13:50:06;;;;;;;43.90;25.35;;;;;;;9.24;65.96;98831.98;2910712;81;21126;-63
2021/01/21 13:54:10;;;;;;;44.58;25.48;;;;;;;9.31;65.80;98838.84;2910956;81;21156;-64
2021/01/21 13:58:13;;;;;;;37.42;24.15;;;;;;;9.39;65.62;98830.93;2907937;81;21156;-64
2021/01/21 14:02:16;;;;;;;35.15;21.90;;;;;;;9.38;65.63;98831.44;2910162;81;21164;-64
2021/01/21 14:06:21;;;;;;;28.85;16.12;;;;;;;9.37;66.03;98827.13;2910669;81;21556;-64
2021/01/21 14:10:25;;;;;;;16.42;12.65;;;;;;;9.34;66.00;98831.89;2910128;80;21157;-65
2021/01/21 14:14:28;;;;;;;12.03;8.93;;;;;;;9.38;65.42;98827.45;2910516;81;21900;-64
2021/01/21 14:18:34;;;;;;;16.17;11.50;;;;;;;9.42;64.04;98816.02;2910846;80;21160;-66
2021/01/21 14:22:38;;;;;;;21.70;15.28;;;;;;;9.47;63.53;98809.77;2910214;81;21180;-67
2021/01/21 14:26:41;;;;;;;19.62;13.55;;;;;;;9.51;63.70;98810.28;2910565;81;21113;-65
2021/01/21 14:30:45;;;;;;;14.90;11.08;;;;;;;9.49;63.88;98801.64;2910511;81;21141;-65
2021/01/21 14:34:48;;;;;;;13.00;9.70;;;;;;;9.48;63.69;98802.16;2910868;81;21141;-65
2021/01/21 14:38:51;;;;;;;11.88;7.67;;;;;;;9.53;63.41;98799.85;2910602;81;21160;-64
2021/01/21 14:42:54;;;;;;;10.53;8.35;;;;;;;9.57;62.83;98805.70;2910675;81;21145;-64
2021/01/21 14:46:57;;;;;;;11.38;9.35;;;;;;;9.64;62.74;98813.88;2910735;81;21153;-63
2021/01/21 14:51:02;;;;;;;13.65;10.28;;;;;;;9.66;62.55;98811.89;2910621;80;21152;-62
2021/01/21 14:55:14;;;;;;;18.98;12.58;;;;;;;9.67;62.44;98813.05;2921407;81;21131;-62
2021/01/21 14:59:16;;;;;;;12.95;9.63;;;;;;;9.63;62.59;98813.03;2919219;81;21639;-63
2021/01/21 15:03:19;;;;;;;18.57;11.00;;;;;;;9.61;62.68;98805.72;2913483;81;21165;-68
2021/01/21 15:07:22;;;;;;;18.30;10.63;;;;;;;9.52;62.59;98806.16;2910540;80;21146;-69
2021/01/21 15:11:26;;;;;;;11.65;8.60;;;;;;;9.44;62.52;98807.44;2872569;82;21481;-66
2021/01/21 15:15:29;;;;;;;14.55;11.12;;;;;;;9.39;62.85;98813.67;2872733;82;21160;-66
2021/01/21 15:19:32;;;;;;;12.03;8.88;;;;;;;9.33;63.26;98821.76;2887788;80;21147;-67
2021/01/21 15:23:38;;;;;;;13.05;8.35;;;;;;;9.27;63.62;98813.94;2910401;80;22244;-68
2021/01/21 15:27:41;;;;;;;15.80;9.33;;;;;;;9.20;63.94;98814.70;2910617;81;21149;-66
2021/01/21 15:31:44;;;;;;;15.40;9.88;;;;;;;9.19;64.11;98806.41;2902647;81;21120;-67
2021/01/21 15:35:47;;;;;;;15.15;10.95;;;;;;;9.16;64.06;98802.73;2900033;82;21137;-68
2021/01/21 15:39:51;;;;;;;21.50;10.35;;;;;;;9.21;64.03;98801.78;2900352;82;21157;-68
2021/01/21 15:43:54;;;;;;;18.52;12.88;;;;;;;9.20;63.64;98801.44;2900174;82;21125;-68
2021/01/21 15:47:57;;;;;;;16.55;12.73;;;;;;;9.21;63.64;98800.45;2900331;82;21153;-67
2021/01/21 15:52:00;;;;;;;13.58;8.68;;;;;;;9.21;63.06;98800.45;2850990;83;22422;-66
2021/01/21 15:56:04;;;;;;;21.48;8.63;;;;;;;9.21;62.75;98807.90;2850767;83;21164;-67
2021/01/21 16:00:09;;;;;;;11.50;9.70;;;;;;;9.23;62.46;98799.30;2850498;83;21157;-68
2021/01/21 16:04:14;;;;;;;17.87;11.05;;;;;;;9.23;62.56;98800.62;2846709;83;21150;-67
2021/01/21 16:08:17;;;;;;;14.80;13.15;;;;;;;9.18;62.88;98799.44;2851061;83;21149;-67
2021/01/21 16:12:20;;;;;;;23.07;16.42;;;;;;;9.13;63.04;98813.16;2850735;83;21153;-64
2021/01/21 16:16:25;;;;;;;18.20;12.90;;;;;;;9.08;63.26;98812.27;2850822;83;21161;-63
2021/01/21 16:20:28;;;;;;;19.23;13.98;;;;;;;9.03;63.31;98816.36;2850667;83;21165;-65
2021/01/21 16:24:31;;;;;;;21.15;12.90;;;;;;;9.06;63.25;98812.11;2849089;83;21110;-65
2021/01/21 16:28:34;;;;;;;20.65;10.90;;;;;;;9.01;63.14;98820.52;2848521;83;21157;-66
2021/01/21 16:32:38;;;;;;;18.85;11.88;;;;;;;9.08;63.09;98827.37;2848714;83;21749;-65
2021/01/21 16:36:41;;;;;;;14.15;9.15;;;;;;;9.07;63.07;98836.31;2847985;83;21165;-65
2021/01/21 16:40:46;;;;;;;19.95;12.53;;;;;;;9.08;63.09;98834.00;2848621;83;21192;-63
2021/01/21 16:44:55;;;;;;;14.25;9.55;;;;;;;9.06;63.27;98829.34;2848950;83;21148;-67
2021/01/21 16:48:57;;;;;;;14.00;10.18;;;;;;;9.02;63.23;98833.27;2848870;83;21145;-66
2021/01/21 16:53:00;;;;;;;17.50;10.63;;;;;;;9.09;63.01;98837.81;2893381;80;21116;-69
2021/01/21 16:57:03;;;;;;;12.88;9.33;;;;;;;9.13;63.01;98833.86;2873633;80;21149;-66
2021/01/21 17:01:06;;;;;;;21.27;14.23;;;;;;;9.09;63.32;98829.86;2930851;80;21571;-66
2021/01/21 17:05:11;;;;;;;16.07;9.30;;;;;;;9.05;63.41;98827.69;2927220;80;21588;-69
2021/01/21 17:09:13;;;;;;;14.13;9.75;;;;;;;9.02;63.36;98829.28;2851247;80;21148;-67
2021/01/21 17:13:16;;;;;;;18.20;8.90;;;;;;;9.05;63.10;98831.15;2852369;83;21085;-68
2021/01/21 17:17:32;;;;;;;11.33;8.63;;;;;;;9.14;62.47;98828.93;2852740;82;21105;-67
2021/01/21 17:21:48;;;;;;;12.35;8.48;;;;;;;9.22;62.10;98821.51;2893632;80;21739;-68
2021/01/21 17:26:32;;;;;;;13.48;9.30;;;;;;;9.33;61.81;98820.43;2895726;82;21141;-67
2021/01/21 17:30:47;;;;;;;19.55;11.78;;;;;;;9.34;61.97;98817.30;2909854;80;21181;-69
2021/01/21 17:35:07;;;;;;;16.23;13.78;;;;;;;9.30;62.21;98819.41;2883646;80;21156;-69
2021/01/21 17:39:32;;;;;;;18.90;10.38;;;;;;;9.18;62.39;98813.52;2879503;82;21065;-68
2021/01/21 17:43:47;;;;;;;12.65;10.20;;;;;;;9.17;62.37;98811.86;2879799;82;21129;-66
2021/01/21 17:47:54;;;;;;;18.35;10.23;;;;;;;9.18;62.45;98809.54;2879944;81;21182;-68
2021/01/21 17:51:59;;;;;;;19.52;10.60;;;;;;;9.19;62.33;98796.61;2850994;83;21145;-64
2021/01/21 17:56:05;;;;;;;22.27;10.58;;;;;;;9.18;62.33;98792.80;2872047;80;21182;-66
2021/01/21 18:00:11;;;;;;;18.60;11.03;;;;;;;9.24;62.04;98798.33;2873550;82;21140;-68
2021/01/21 18:04:13;;;;;;;15.20;10.38;;;;;;;9.26;62.28;98799.02;2852936;80;21732;-67
2021/01/21 18:08:16;;;;;;;14.18;8.85;;;;;;;9.26;62.29;98799.02;2900309;80;21574;-69
2021/01/21 18:12:20;;;;;;;10.82;7.85;;;;;;;9.29;62.18;98813.29;2900078;82;21169;-67
2021/01/21 18:16:23;;;;;;;12.53;9.15;;;;;;;9.34;61.93;98814.16;2900190;82;21164;-64
2021/01/21 18:20:28;;;;;;;11.12;9.18;;;;;;;9.37;61.86;98813.00;2868471;82;21148;-66
2021/01/21 18:24:32;;;;;;;14.50;9.58;;;;;;;9.43;61.60;98813.70;2904404;80;21587;-66
2021/01/21 18:28:37;;;;;;;12.00;7.67;;;;;;;9.47;61.34;98808.92;2950736;80;21176;-66
2021/01/21 18:32:41;;;;;;;14.55;8.90;;;;;;;9.54;61.15;98809.48;2888882;80;21153;-67
2021/01/21 18:36:45;;;;;;;14.75;10.05;;;;;;;9.63;60.77;98807.72;2897337;80;21133;-65
2021/01/21 18:40:48;;;;;;;13.75;8.85;;;;;;;9.66;60.31;98806.08;2891839;81;21129;-66
2021/01/21 18:44:51;;;;;;;10.43;7.60;;;;;;;9.70;60.35;98806.09;2898922;80;21169;-65
2021/01/21 18:48:53;;;;;;;11.75;8.25;;;;;;;9.72;60.10;98792.67;2899802;81;21598;-66
2021/01/21 18:52:57;;;;;;;15.90;9.63;;;;;;;9.73;59.81;98785.04;2943801;80;21169;-67
2021/01/21 18:57:05;;;;;;;8.75;7.53;;;;;;;9.77;59.70;98793.02;2910572;81;21137;-68
2021/01/21 19:01:08;;;;;;;10.75;7.22;;;;;;;9.73;60.15;98793.01;2892392;80;21160;-64
2021/01/21 19:05:12;;;;;;;10.18;7.08;;;;;;;9.66;60.55;98794.64;2888535;80;21151;-63
2021/01/21 19:09:16;;;;;;;12.80;9.18;;;;;;;9.54;60.88;98785.59;2881890;80;21165;-67